| time (UTC) | temp F | wind direction | speed MPH | gust MPH | rain 1hr in | rain 24hr in | rain mn in | humidity % | barometer mb |
| 20260510231503 | 68 | 240 | 7.0 | 13.0 | 0.00 | 0.14 | 0.10 | 44 | 1016.5 |
| 20260510231003 | 68 | 234 | 6.0 | 12.0 | 0.00 | 0.14 | 0.10 | 44 | 1016.6 |
| 20260510230503 | 68 | 227 | 6.0 | 14.0 | 0.00 | 0.14 | 0.10 | 44 | 1016.5 |
| 20260510230003 | 68 | 233 | 6.0 | 14.0 | 0.00 | 0.14 | 0.10 | 44 | 1016.4 |
| 20260510225503 | 68 | 266 | 4.0 | 9.0 | 0.00 | 0.14 | 0.10 | 44 | 1016.4 |
| 20260510225218 | 69 | 267 | 3.0 | 9.0 | 0.00 | 0.14 | 0.10 | 44 | 1016.5 |
| 20260510224503 | 68 | 226 | 2.0 | 5.0 | 0.00 | 0.14 | 0.10 | 45 | 1016.4 |
| 20260510224003 | 67 | 243 | 4.0 | 9.0 | 0.00 | 0.14 | 0.10 | 44 | 1016.4 |
| 20260510223503 | 66 | 261 | 6.0 | 14.0 | 0.00 | 0.14 | 0.10 | 46 | 1016.6 |
| 20260510223003 | 67 | 265 | 6.0 | 14.0 | 0.00 | 0.14 | 0.10 | 45 | 1016.5 |
| 20260510222503 | 68 | 246 | 3.0 | 10.0 | 0.00 | 0.14 | 0.10 | 44 | 1016.5 |
| 20260510222433 | 68 | 246 | 3.0 | 10.0 | 0.00 | 0.14 | 0.10 | 45 | 1016.5 |
| 20260510221503 | 68 | 274 | 5.0 | 11.0 | 0.00 | 0.14 | 0.10 | 45 | 1016.8 |
| 20260510221003 | 68 | 298 | 5.0 | 11.0 | 0.00 | 0.14 | 0.10 | 46 | 1016.9 |
| 20260510220717 | 68 | 313 | 5.0 | 11.0 | 0.00 | 0.14 | 0.10 | 46 | 1016.9 |
| 20260510220433 | 68 | 324 | 5.0 | 10.0 | 0.00 | 0.14 | 0.10 | 45 | 1017.0 |
| 20260510215503 | 67 | 223 | 5.0 | 10.0 | 0.00 | 0.14 | 0.10 | 47 | 1017.0 |
| 20260510215003 | 67 | 228 | 7.0 | 11.0 | 0.00 | 0.14 | 0.10 | 46 | 1017.0 |
| 20260510214503 | 66 | 239 | 8.0 | 11.0 | 0.00 | 0.14 | 0.10 | 46 | 1017.0 |
| 20260510214433 | 66 | 242 | 8.0 | 11.0 | 0.00 | 0.14 | 0.10 | 46 | 1017.0 |
| 20260510213717 | 66 | 256 | 4.0 | 11.0 | 0.00 | 0.14 | 0.10 | 47 | 1017.1 |
| 20260510213003 | 65 | 182 | 3.0 | 10.0 | 0.00 | 0.14 | 0.10 | 47 | 1017.2 |
| 20260510212717 | 65 | 192 | 3.0 | 10.0 | 0.00 | 0.14 | 0.10 | 47 | 1017.3 |
| 20260510212003 | 65 | 240 | 3.0 | 9.0 | 0.00 | 0.14 | 0.10 | 46 | 1017.3 |
| 20260510211503 | 66 | 261 | 6.0 | 22.0 | 0.00 | 0.14 | 0.10 | 45 | 1017.3 |
| 20260510211003 | 67 | 251 | 5.0 | 22.0 | 0.00 | 0.14 | 0.10 | 44 | 1017.4 |
| 20260510210503 | 67 | 197 | 3.0 | 8.0 | 0.00 | 0.14 | 0.10 | 44 | 1017.5 |
| 20260510210003 | 67 | 194 | 5.0 | 12.0 | 0.00 | 0.14 | 0.10 | 45 | 1017.6 |
| 20260510205503 | 66 | 208 | 6.0 | 13.0 | 0.00 | 0.14 | 0.10 | 46 | 1017.6 |
| 20260510205217 | 66 | 229 | 5.0 | 13.0 | 0.00 | 0.14 | 0.10 | 45 | 1017.7 |
| 20260510204932 | 66 | 246 | 5.0 | 13.0 | 0.00 | 0.14 | 0.10 | 44 | 1017.7 |
| 20260510204003 | 66 | 215 | 5.0 | 9.0 | 0.00 | 0.14 | 0.10 | 46 | 1017.7 |
| 20260510203503 | 66 | 198 | 6.0 | 11.0 | 0.00 | 0.14 | 0.10 | 46 | 1017.8 |
| 20260510203217 | 66 | 182 | 7.0 | 14.0 | 0.00 | 0.14 | 0.10 | 47 | 1017.8 |
| 20260510202503 | 65 | 163 | 7.0 | 15.0 | 0.00 | 0.14 | 0.10 | 49 | 1017.9 |
| 20260510202217 | 64 | 163 | 4.0 | 15.0 | 0.00 | 0.14 | 0.10 | 50 | 1018.0 |
| 20260510201503 | 64 | 203 | 3.0 | 12.0 | 0.00 | 0.14 | 0.10 | 46 | 1018.0 |
| 20260510201003 | 64 | 169 | 5.0 | 12.0 | 0.00 | 0.14 | 0.10 | 47 | 1018.1 |
| 20260510200503 | 65 | 159 | 5.0 | 9.0 | 0.00 | 0.14 | 0.10 | 47 | 1018.2 |
| 20260510200217 | 65 | 168 | 4.0 | 9.0 | 0.00 | 0.14 | 0.10 | 46 | 1018.2 |
| 20260510195933 | 64 | 181 | 3.0 | 9.0 | 0.00 | 0.14 | 0.10 | 47 | 1018.3 |
| 20260510195003 | 64 | 220 | 4.0 | 10.0 | 0.00 | 0.14 | 0.10 | 48 | 1018.3 |
| 20260510194503 | 64 | 198 | 2.0 | 8.0 | 0.00 | 0.14 | 0.10 | 48 | 1018.3 |
| 20260510194003 | 63 | 186 | 2.0 | 6.0 | 0.00 | 0.14 | 0.10 | 51 | 1018.3 |
| 20260510193503 | 62 | 223 | 3.0 | 7.0 | 0.00 | 0.14 | 0.10 | 51 | 1018.3 |
| 20260510193003 | 62 | 238 | 5.0 | 11.0 | 0.00 | 0.14 | 0.10 | 50 | 1018.4 |
| 20260510192503 | 62 | 244 | 6.0 | 11.0 | 0.00 | 0.14 | 0.10 | 50 | 1018.4 |
| 20260510192432 | 62 | 246 | 6.0 | 11.0 | 0.00 | 0.14 | 0.10 | 51 | 1018.4 |
| 20260510191504 | 63 | 229 | 2.0 | 11.0 | 0.00 | 0.14 | 0.10 | 52 | 1018.5 |
| 20260510191003 | 62 | 222 | 3.0 | 8.0 | 0.00 | 0.14 | 0.10 | 52 | 1018.5 |
| 20260510190503 | 62 | 224 | 4.0 | 10.0 | 0.00 | 0.14 | 0.10 | 52 | 1018.6 |
| 20260510190003 | 61 | 233 | 4.0 | 10.0 | 0.00 | 0.14 | 0.10 | 53 | 1018.6 |
| 20260510185503 | 61 | 239 | 4.0 | 9.0 | 0.00 | 0.14 | 0.10 | 52 | 1018.8 |
| 20260510185003 | 61 | 250 | 3.0 | 8.0 | 0.00 | 0.14 | 0.10 | 55 | 1018.8 |
| 20260510184503 | 61 | 238 | 4.0 | 9.0 | 0.00 | 0.14 | 0.10 | 54 | 1018.9 |
| 20260510184003 | 61 | 210 | 6.0 | 9.0 | 0.00 | 0.14 | 0.10 | 54 | 1018.9 |
| 20260510183503 | 61 | 223 | 6.0 | 11.0 | 0.00 | 0.14 | 0.10 | 54 | 1018.9 |
| 20260510183003 | 60 | 254 | 5.0 | 11.0 | 0.00 | 0.14 | 0.10 | 56 | 1019.0 |
| 20260510182933 | 60 | 256 | 5.0 | 11.0 | 0.00 | 0.14 | 0.10 | 56 | 1019.1 |
| 20260510182003 | 60 | 243 | 5.0 | 11.0 | 0.00 | 0.14 | 0.10 | 56 | 1019.1 |
| 20260510181717 | 60 | 257 | 5.0 | 11.0 | 0.00 | 0.14 | 0.10 | 55 | 1019.2 |
| 20260510181432 | 60 | 258 | 5.0 | 11.0 | 0.00 | 0.14 | 0.10 | 55 | 1019.2 |
| 20260510180717 | 59 | 223 | 5.0 | 11.0 | 0.00 | 0.14 | 0.10 | 55 | 1019.2 |
| 20260510180003 | 59 | 232 | 5.0 | 10.0 | 0.00 | 0.14 | 0.10 | 56 | 1019.2 |
| 20260510175503 | 59 | 232 | 6.0 | 10.0 | 0.00 | 0.14 | 0.10 | 55 | 1019.2 |
| 20260510175003 | 58 | 222 | 5.0 | 10.0 | 0.00 | 0.14 | 0.10 | 56 | 1019.3 |
| 20260510174717 | 58 | 219 | 5.0 | 10.0 | 0.00 | 0.14 | 0.10 | 56 | 1019.3 |
| 20260510174218 | 57 | 233 | 5.0 | 9.0 | 0.00 | 0.14 | 0.10 | 57 | 1019.4 |
| 20260510173503 | 57 | 249 | 5.0 | 9.0 | 0.00 | 0.14 | 0.10 | 59 | 1019.5 |
| 20260510173003 | 56 | 246 | 6.0 | 9.0 | 0.00 | 0.14 | 0.10 | 62 | 1019.5 |
| 20260510172932 | 56 | 248 | 6.0 | 9.0 | 0.00 | 0.14 | 0.10 | 62 | 1019.5 |
| 20260510172003 | 56 | 248 | 5.0 | 9.0 | 0.00 | 0.14 | 0.10 | 64 | 1019.5 |
| 20260510171503 | 55 | 235 | 5.0 | 9.0 | 0.00 | 0.14 | 0.10 | 66 | 1019.5 |
| 20260510171433 | 55 | 237 | 5.0 | 9.0 | 0.00 | 0.14 | 0.10 | 67 | 1019.5 |
| 20260510170717 | 54 | 238 | 3.0 | 8.0 | 0.00 | 0.14 | 0.10 | 70 | 1019.4 |
| 20260510170218 | 54 | 223 | 3.0 | 7.0 | 0.00 | 0.14 | 0.10 | 71 | 1019.2 |
| 20260510165932 | 54 | 215 | 3.0 | 5.0 | 0.00 | 0.14 | 0.10 | 71 | 1019.3 |
| 20260510165003 | 53 | 195 | 1.0 | 3.0 | 0.00 | 0.14 | 0.10 | 74 | 1019.4 |
| 20260510164503 | 53 | 177 | 1.0 | 3.0 | 0.00 | 0.14 | 0.10 | 75 | 1019.4 |
| 20260510164218 | 52 | 176 | 1.0 | 3.0 | 0.00 | 0.14 | 0.10 | 76 | 1019.4 |
| 20260510163503 | 52 | 185 | 2.0 | 5.0 | 0.01 | 0.14 | 0.10 | 77 | 1019.5 |
| 20260510163003 | 52 | 252 | 1.0 | 5.0 | 0.01 | 0.14 | 0.10 | 78 | 1019.4 |
| 20260510162503 | 52 | 273 | 0.0 | 3.0 | 0.01 | 0.14 | 0.10 | 79 | 1019.5 |
| 20260510162003 | 52 | 258 | 2.0 | 6.0 | 0.01 | 0.14 | 0.10 | 79 | 1019.6 |
| 20260510161503 | 51 | 239 | 2.0 | 6.0 | 0.01 | 0.14 | 0.10 | 80 | 1019.6 |
| 20260510161218 | 51 | 227 | 2.0 | 6.0 | 0.01 | 0.14 | 0.10 | 80 | 1019.7 |
| 20260510160503 | 50 | 223 | 3.0 | 4.0 | 0.01 | 0.14 | 0.10 | 80 | 1019.6 |
| 20260510160003 | 50 | 215 | 4.0 | 9.0 | 0.01 | 0.14 | 0.10 | 80 | 1019.5 |
| 20260510155503 | 50 | 195 | 5.0 | 9.0 | 0.01 | 0.14 | 0.10 | 80 | 1019.1 |
| 20260510155003 | 50 | 181 | 3.0 | 8.0 | 0.01 | 0.14 | 0.10 | 80 | 1018.9 |
| 20260510154503 | 50 | 15 | 2.0 | 5.0 | 0.01 | 0.14 | 0.10 | 79 | 1019.2 |
| 20260510154003 | 50 | 8 | 4.0 | 7.0 | 0.01 | 0.14 | 0.10 | 79 | 1019.5 |
| 20260510153503 | 50 | 360 | 5.0 | 8.0 | 0.00 | 0.13 | 0.09 | 79 | 1019.7 |
| 20260510153003 | 51 | 360 | 6.0 | 8.0 | 0.00 | 0.13 | 0.09 | 79 | 1019.8 |
| 20260510152931 | 51 | 1 | 6.0 | 8.0 | 0.00 | 0.13 | 0.09 | 79 | 1019.8 |
| 20260510152003 | 51 | 11 | 7.0 | 9.0 | 0.00 | 0.13 | 0.09 | 79 | 1019.8 |
| 20260510151503 | 51 | 14 | 7.0 | 9.0 | 0.00 | 0.13 | 0.09 | 79 | 1019.8 |
| 20260510151003 | 51 | 11 | 7.0 | 9.0 | 0.00 | 0.13 | 0.09 | 80 | 1019.8 |
| 20260510150503 | 52 | 7 | 6.0 | 9.0 | 0.00 | 0.13 | 0.09 | 80 | 1019.7 |
| 20260510150003 | 52 | 9 | 5.0 | 8.0 | 0.00 | 0.13 | 0.09 | 80 | 1019.6 |
| 20260510145933 | 52 | 9 | 5.0 | 8.0 | 0.00 | 0.13 | 0.09 | 80 | 1019.6 |
| 20260510145003 | 51 | 17 | 4.0 | 7.0 | 0.00 | 0.13 | 0.09 | 80 | 1019.4 |
| 20260510144503 | 51 | 27 | 4.0 | 7.0 | 0.00 | 0.13 | 0.09 | 79 | 1019.4 |
| 20260510144003 | 51 | 30 | 4.0 | 6.0 | 0.00 | 0.13 | 0.09 | 79 | 1019.3 |
| 20260510143718 | 51 | 26 | 3.0 | 6.0 | 0.00 | 0.13 | 0.09 | 80 | 1019.3 |
| 20260510143003 | 51 | 1 | 2.0 | 5.0 | 0.00 | 0.13 | 0.09 | 80 | 1019.4 |
| 20260510142718 | 51 | 360 | 3.0 | 5.0 | 0.00 | 0.13 | 0.09 | 79 | 1019.4 |
| 20260510142217 | 51 | 360 | 2.0 | 5.0 | 0.00 | 0.13 | 0.09 | 79 | 1019.2 |
| 20260510141503 | 51 | 360 | 3.0 | 4.0 | 0.00 | 0.13 | 0.09 | 77 | 1019.2 |
| 20260510141003 | 51 | 360 | 1.0 | 4.0 | 0.00 | 0.13 | 0.09 | 76 | 1019.2 |
| 20260510140718 | 51 | 360 | 1.0 | 4.0 | 0.00 | 0.13 | 0.09 | 76 | 1019.2 |
| 20260510140003 | 51 | 0 | 0.0 | 0.0 | 0.00 | 0.13 | 0.09 | 75 | 1019.1 |
| 20260510135503 | 51 | 0 | 0.0 | 0.0 | 0.00 | 0.13 | 0.09 | 75 | 1019.0 |
| 20260510135003 | 51 | 0 | 0.0 | 0.0 | 0.00 | 0.13 | 0.09 | 74 | 1018.9 |
| 20260510134503 | 50 | 0 | 0.0 | 0.0 | 0.00 | 0.13 | 0.09 | 74 | 1018.9 |
| 20260510134432 | 50 | 0 | 0.0 | 0.0 | 0.00 | 0.13 | 0.09 | 74 | 1018.9 |
| 20260510133503 | 50 | 337 | 0.0 | 1.0 | 0.00 | 0.13 | 0.09 | 74 | 1018.8 |
| 20260510133003 | 50 | 337 | 0.0 | 3.0 | 0.00 | 0.13 | 0.09 | 74 | 1018.7 |
| 20260510132718 | 50 | 337 | 1.0 | 3.0 | 0.00 | 0.13 | 0.09 | 73 | 1018.6 |
| 20260510132003 | 50 | 337 | 1.0 | 3.0 | 0.00 | 0.13 | 0.09 | 72 | 1018.6 |
| 20260510131503 | 50 | 337 | 0.0 | 2.0 | 0.00 | 0.13 | 0.09 | 72 | 1018.5 |
| 20260510131003 | 50 | 0 | 0.0 | 0.0 | 0.00 | 0.13 | 0.09 | 72 | 1018.4 |
| 20260510130503 | 50 | 0 | 0.0 | 0.0 | 0.00 | 0.13 | 0.09 | 71 | 1018.2 |
| 20260510130432 | 50 | 0 | 0.0 | 0.0 | 0.00 | 0.13 | 0.09 | 71 | 1018.2 |
| 20260510125717 | 49 | 337 | 1.0 | 3.0 | 0.00 | 0.13 | 0.09 | 71 | 1018.0 |
| 20260510125003 | 49 | 337 | 2.0 | 4.0 | 0.00 | 0.13 | 0.09 | 71 | 1017.9 |
| 20260510124717 | 49 | 337 | 3.0 | 4.0 | 0.00 | 0.13 | 0.09 | 71 | 1017.8 |
| 20260510124432 | 49 | 337 | 3.0 | 4.0 | 0.00 | 0.13 | 0.09 | 71 | 1017.8 |
| 20260510123503 | 49 | 337 | 3.0 | 5.0 | 0.00 | 0.13 | 0.09 | 71 | 1017.6 |
| 20260510123003 | 49 | 334 | 4.0 | 5.0 | 0.00 | 0.13 | 0.09 | 70 | 1017.6 |
| 20260510122503 | 49 | 331 | 4.0 | 5.0 | 0.00 | 0.13 | 0.09 | 70 | 1017.5 |
| 20260510122003 | 49 | 331 | 4.0 | 6.0 | 0.00 | 0.13 | 0.09 | 70 | 1017.4 |
| 20260510121932 | 49 | 331 | 4.0 | 6.0 | 0.00 | 0.13 | 0.09 | 70 | 1017.4 |
| 20260510121003 | 49 | 331 | 5.0 | 8.0 | 0.00 | 0.13 | 0.09 | 69 | 1017.3 |
| 20260510120503 | 49 | 331 | 5.0 | 8.0 | 0.00 | 0.13 | 0.09 | 68 | 1017.2 |
| 20260510120003 | 49 | 341 | 4.0 | 6.0 | 0.00 | 0.13 | 0.09 | 68 | 1017.0 |
| 20260510115503 | 48 | 351 | 4.0 | 6.0 | 0.00 | 0.13 | 0.09 | 67 | 1016.9 |
| 20260510115003 | 48 | 354 | 5.0 | 8.0 | 0.00 | 0.13 | 0.09 | 67 | 1016.8 |
| 20260510114503 | 48 | 1 | 6.0 | 9.0 | 0.00 | 0.13 | 0.09 | 67 | 1016.6 |
| 20260510114003 | 48 | 8 | 6.0 | 9.0 | 0.00 | 0.13 | 0.09 | 67 | 1016.4 |
| 20260510113503 | 48 | 17 | 6.0 | 9.0 | 0.00 | 0.13 | 0.09 | 67 | 1016.3 |
| 20260510113003 | 48 | 20 | 6.0 | 9.0 | 0.00 | 0.13 | 0.09 | 68 | 1016.1 |
| 20260510112932 | 48 | 20 | 6.0 | 9.0 | 0.00 | 0.13 | 0.09 | 68 | 1016.1 |
| 20260510112433 | 48 | 14 | 7.0 | 9.0 | 0.00 | 0.13 | 0.09 | 68 | 1016.2 |
| 20260510111503 | 48 | 15 | 6.0 | 9.0 | 0.00 | 0.13 | 0.09 | 68 | 1016.2 |
| 20260510111218 | 48 | 13 | 5.0 | 9.0 | 0.00 | 0.13 | 0.09 | 68 | 1016.1 |
| 20260510110503 | 48 | 18 | 4.0 | 8.0 | 0.00 | 0.13 | 0.09 | 70 | 1016.2 |
| 20260510110218 | 48 | 24 | 4.0 | 7.0 | 0.00 | 0.13 | 0.09 | 71 | 1016.2 |
| 20260510105503 | 48 | 27 | 4.0 | 7.0 | 0.00 | 0.13 | 0.09 | 72 | 1016.2 |
| 20260510105003 | 48 | 34 | 4.0 | 7.0 | 0.00 | 0.13 | 0.09 | 73 | 1016.2 |
| 20260510104717 | 48 | 41 | 4.0 | 6.0 | 0.00 | 0.13 | 0.09 | 73 | 1016.1 |
| 20260510104003 | 48 | 51 | 3.0 | 4.0 | 0.01 | 0.13 | 0.09 | 73 | 1016.0 |
| 20260510103503 | 48 | 51 | 3.0 | 5.0 | 0.01 | 0.13 | 0.09 | 73 | 1016.0 |
| 20260510103003 | 48 | 51 | 4.0 | 6.0 | 0.01 | 0.13 | 0.09 | 74 | 1016.0 |
| 20260510102716 | 48 | 51 | 5.0 | 6.0 | 0.01 | 0.13 | 0.09 | 75 | 1016.0 |
| 20260510102217 | 48 | 71 | 5.0 | 7.0 | 0.01 | 0.13 | 0.09 | 75 | 1015.9 |
| 20260510101716 | 48 | 91 | 5.0 | 7.0 | 0.01 | 0.13 | 0.09 | 75 | 1015.6 |
| 20260510101003 | 48 | 88 | 4.0 | 6.0 | 0.01 | 0.13 | 0.09 | 76 | 1015.5 |
| 20260510100716 | 48 | 81 | 4.0 | 7.0 | 0.01 | 0.13 | 0.09 | 76 | 1015.4 |
| 20260510100003 | 48 | 66 | 4.0 | 7.0 | 0.01 | 0.13 | 0.09 | 76 | 1015.3 |
| 20260510095931 | 48 | 65 | 4.0 | 7.0 | 0.01 | 0.13 | 0.09 | 76 | 1015.4 |
| 20260510095432 | 48 | 56 | 5.0 | 7.0 | 0.01 | 0.13 | 0.09 | 76 | 1015.4 |
| 20260510094718 | 48 | 69 | 5.0 | 7.0 | 0.01 | 0.13 | 0.09 | 76 | 1015.5 |
| 20260510094003 | 48 | 96 | 4.0 | 6.0 | 0.00 | 0.12 | 0.08 | 76 | 1015.3 |
| 20260510093718 | 49 | 94 | 4.0 | 7.0 | 0.00 | 0.12 | 0.08 | 76 | 1015.1 |
| 20260510093003 | 49 | 91 | 6.0 | 8.0 | 0.00 | 0.12 | 0.08 | 74 | 1014.9 |
| 20260510092933 | 49 | 91 | 6.0 | 8.0 | 0.00 | 0.12 | 0.08 | 74 | 1014.9 |
| 20260510092003 | 49 | 71 | 9.0 | 12.0 | 0.00 | 0.12 | 0.08 | 73 | 1015.1 |
| 20260510091503 | 49 | 62 | 9.0 | 13.0 | 0.00 | 0.12 | 0.08 | 72 | 1015.1 |
| 20260510091003 | 49 | 58 | 9.0 | 13.0 | 0.00 | 0.12 | 0.08 | 72 | 1015.2 |
| 20260510090503 | 50 | 61 | 10.0 | 14.0 | 0.00 | 0.12 | 0.08 | 72 | 1015.2 |
| 20260510090432 | 50 | 61 | 10.0 | 14.0 | 0.00 | 0.12 | 0.08 | 72 | 1015.2 |
| 20260510085503 | 50 | 44 | 11.0 | 17.0 | 0.00 | 0.12 | 0.08 | 73 | 1015.2 |
| 20260510085003 | 50 | 38 | 9.0 | 17.0 | 0.00 | 0.12 | 0.08 | 74 | 1015.3 |
| 20260510084933 | 50 | 37 | 9.0 | 15.0 | 0.00 | 0.12 | 0.08 | 74 | 1015.3 |
| 20260510084003 | 50 | 300 | 3.0 | 5.0 | 0.01 | 0.12 | 0.08 | 75 | 1015.0 |
| 20260510083503 | 50 | 300 | 3.0 | 5.0 | 0.01 | 0.12 | 0.08 | 76 | 1015.0 |
| 20260510083003 | 50 | 300 | 3.0 | 5.0 | 0.01 | 0.12 | 0.08 | 76 | 1014.8 |
| 20260510082933 | 50 | 300 | 3.0 | 5.0 | 0.01 | 0.12 | 0.08 | 76 | 1014.7 |
| 20260510082432 | 51 | 300 | 4.0 | 5.0 | 0.01 | 0.12 | 0.08 | 76 | 1014.9 |
| 20260510081503 | 51 | 300 | 5.0 | 7.0 | 0.01 | 0.12 | 0.08 | 77 | 1015.0 |
| 20260510081217 | 51 | 309 | 4.0 | 7.0 | 0.01 | 0.12 | 0.08 | 78 | 1015.0 |
| 20260510080503 | 51 | 49 | 1.0 | 5.0 | 0.01 | 0.12 | 0.08 | 79 | 1014.7 |
| 20260510080216 | 51 | 65 | 0.0 | 3.0 | 0.01 | 0.12 | 0.08 | 79 | 1014.7 |
| 20260510075933 | 50 | 65 | 0.0 | 2.0 | 0.01 | 0.12 | 0.08 | 79 | 1014.6 |
| 20260510075432 | 51 | 65 | 1.0 | 3.0 | 0.01 | 0.12 | 0.08 | 79 | 1014.6 |
| 20260510074503 | 51 | 65 | 0.0 | 3.0 | 0.00 | 0.11 | 0.07 | 80 | 1014.5 |
| 20260510074003 | 51 | 65 | 0.0 | 1.0 | 0.00 | 0.11 | 0.07 | 80 | 1014.6 |
| 20260510073503 | 51 | 65 | 1.0 | 5.0 | 0.00 | 0.11 | 0.07 | 80 | 1014.7 |
| 20260510073003 | 51 | 65 | 3.0 | 5.0 | 0.00 | 0.11 | 0.07 | 79 | 1014.9 |
| 20260510072717 | 51 | 56 | 5.0 | 13.0 | 0.00 | 0.11 | 0.07 | 79 | 1015.0 |
| 20260510072003 | 50 | 32 | 9.0 | 14.0 | 0.00 | 0.11 | 0.07 | 79 | 1015.0 |
| 20260510071503 | 50 | 23 | 11.0 | 14.0 | 0.00 | 0.11 | 0.07 | 79 | 1014.9 |
| 20260510071218 | 50 | 26 | 10.0 | 14.0 | 0.00 | 0.11 | 0.07 | 79 | 1014.8 |
| 20260510070932 | 50 | 39 | 10.0 | 14.0 | 0.00 | 0.11 | 0.07 | 79 | 1014.6 |
| 20260510070433 | 51 | 135 | 10.0 | 16.0 | 0.00 | 0.11 | 0.07 | 79 | 1014.3 |
| 20260510065503 | 50 | 167 | 15.0 | 24.0 | 0.00 | 0.11 | 0.07 | 79 | 1013.1 |
| 20260510065003 | 50 | 169 | 17.0 | 27.0 | 0.00 | 0.11 | 0.07 | 79 | 1012.9 |
| 20260510064503 | 50 | 167 | 20.0 | 27.0 | 0.00 | 0.11 | 0.07 | 79 | 1012.6 |
| 20260510064218 | 50 | 163 | 20.0 | 27.0 | 0.00 | 0.11 | 0.07 | 79 | 1012.5 |
| 20260510063503 | 50 | 141 | 21.0 | 27.0 | 0.01 | 0.11 | 0.07 | 79 | 1012.3 |
| 20260510063003 | 50 | 130 | 22.0 | 29.0 | 0.01 | 0.11 | 0.07 | 79 | 1012.1 |
| 20260510062932 | 50 | 129 | 22.0 | 29.0 | 0.01 | 0.11 | 0.07 | 79 | 1012.1 |
| 20260510062003 | 50 | 125 | 23.0 | 29.0 | 0.03 | 0.11 | 0.07 | 78 | 1012.0 |
| 20260510061503 | 50 | 116 | 23.0 | 29.0 | 0.05 | 0.11 | 0.07 | 77 | 1012.0 |
| 20260510061003 | 50 | 105 | 22.0 | 29.0 | 0.06 | 0.11 | 0.07 | 76 | 1012.2 |
| 20260510060932 | 50 | 103 | 22.0 | 29.0 | 0.06 | 0.11 | 0.07 | 76 | 1012.2 |
| 20260510060003 | 50 | 95 | 20.0 | 27.0 | 0.07 | 0.11 | 0.07 | 75 | 1012.8 |
| 20260510055932 | 50 | 95 | 20.0 | 27.0 | 0.07 | 0.11 | 0.07 | 75 | 1012.8 |
| 20260510055218 | 51 | 94 | 18.0 | 27.0 | 0.09 | 0.11 | 0.07 | 76 | 1013.1 |
| 20260510054717 | 51 | 90 | 16.0 | 27.0 | 0.09 | 0.11 | 0.07 | 76 | 1013.3 |
| 20260510054433 | 51 | 87 | 16.0 | 21.0 | 0.10 | 0.11 | 0.07 | 76 | 1013.6 |
| 20260510053503 | 51 | 74 | 13.0 | 19.0 | 0.10 | 0.10 | 0.06 | 78 | 1014.3 |
| 20260510053003 | 52 | 63 | 12.0 | 16.0 | 0.10 | 0.10 | 0.06 | 78 | 1014.7 |
| 20260510052932 | 52 | 61 | 12.0 | 16.0 | 0.10 | 0.10 | 0.06 | 79 | 1014.8 |
| 20260510052217 | 52 | 47 | 14.0 | 19.0 | 0.09 | 0.09 | 0.05 | 79 | 1015.0 |
| 20260510051932 | 52 | 42 | 15.0 | 20.0 | 0.08 | 0.08 | 0.04 | 79 | 1015.0 |
| 20260510051003 | 53 | 28 | 16.0 | 19.0 | 0.05 | 0.05 | 0.01 | 79 | 1014.9 |
| 20260510050503 | 53 | 29 | 15.0 | 18.0 | 0.05 | 0.05 | 0.01 | 78 | 1014.9 |
| 20260510050003 | 53 | 34 | 15.0 | 18.0 | 0.04 | 0.04 | 0.00 | 77 | 1014.8 |
| 20260510045932 | 53 | 35 | 15.0 | 19.0 | 0.04 | 0.04 | 0.04 | 77 | 1014.8 |
| 20260510045003 | 54 | 49 | 16.0 | 21.0 | 0.02 | 0.02 | 0.02 | 74 | 1014.5 |
| 20260510044503 | 55 | 53 | 17.0 | 21.0 | 0.01 | 0.01 | 0.01 | 72 | 1014.5 |
| 20260510044432 | 55 | 54 | 17.0 | 21.0 | 0.01 | 0.01 | 0.01 | 71 | 1014.3 |
| 20260510043716 | 57 | 59 | 16.0 | 21.0 | 0.00 | 0.00 | 0.00 | 65 | 1014.0 |
| 20260510043003 | 58 | 66 | 16.0 | 24.0 | 0.00 | 0.00 | 0.00 | 59 | 1013.6 |
| 20260510042718 | 58 | 67 | 16.0 | 24.0 | 0.00 | 0.00 | 0.00 | 59 | 1013.5 |
| 20260510042003 | 58 | 71 | 17.0 | 26.0 | 0.00 | 0.00 | 0.00 | 58 | 1013.1 |
| 20260510041503 | 58 | 74 | 18.0 | 25.0 | 0.00 | 0.00 | 0.00 | 57 | 1012.8 |
| 20260510041003 | 57 | 76 | 20.0 | 26.0 | 0.00 | 0.00 | 0.00 | 57 | 1012.4 |
| 20260510040503 | 57 | 76 | 21.0 | 26.0 | 0.00 | 0.00 | 0.00 | 57 | 1012.0 |
| 20260510040003 | 58 | 77 | 22.0 | 33.0 | 0.00 | 0.00 | 0.00 | 57 | 1011.6 |
| 20260510035718 | 58 | 77 | 22.0 | 33.0 | 0.00 | 0.00 | 0.00 | 56 | 1011.4 |
| 20260510035003 | 58 | 80 | 22.0 | 30.0 | 0.00 | 0.00 | 0.00 | 56 | 1011.3 |
| 20260510034506 | 58 | 81 | 23.0 | 31.0 | 0.00 | 0.00 | 0.00 | 55 | 1011.1 |
| 20260510034003 | 58 | 83 | 21.0 | 31.0 | 0.00 | 0.00 | 0.00 | 54 | 1011.1 |
| 20260510033503 | 58 | 87 | 20.0 | 28.0 | 0.00 | 0.00 | 0.00 | 54 | 1011.3 |
| 20260510033003 | 58 | 89 | 20.0 | 28.0 | 0.00 | 0.00 | 0.00 | 54 | 1011.0 |
| 20260510032718 | 58 | 88 | 20.0 | 28.0 | 0.00 | 0.00 | 0.00 | 54 | 1010.5 |
| 20260510032008 | 58 | 86 | 22.0 | 30.0 | 0.00 | 0.00 | 0.00 | 53 | 1010.3 |
| 20260510031718 | 58 | 87 | 23.0 | 30.0 | 0.00 | 0.00 | 0.00 | 53 | 1010.4 |
| 20260510031217 | 59 | 86 | 25.0 | 33.0 | 0.00 | 0.00 | 0.00 | 52 | 1009.8 |
| 20260510030503 | 59 | 85 | 25.0 | 33.0 | 0.00 | 0.00 | 0.00 | 51 | 1008.9 |
| 20260510030003 | 59 | 86 | 23.0 | 31.0 | 0.00 | 0.00 | 0.00 | 51 | 1008.8 |
| 20260510025503 | 60 | 87 | 23.0 | 30.0 | 0.00 | 0.00 | 0.00 | 50 | 1008.6 |
| 20260510025003 | 60 | 90 | 23.0 | 32.0 | 0.00 | 0.00 | 0.00 | 49 | 1008.5 |
| 20260510024718 | 61 | 90 | 22.0 | 32.0 | 0.00 | 0.00 | 0.00 | 49 | 1008.3 |
| 20260510024432 | 61 | 91 | 21.0 | 32.0 | 0.00 | 0.00 | 0.00 | 48 | 1008.1 |
| 20260510023717 | 61 | 96 | 16.0 | 21.0 | 0.00 | 0.00 | 0.00 | 44 | 1008.2 |
| 20260510023003 | 62 | 97 | 16.0 | 21.0 | 0.00 | 0.00 | 0.00 | 44 | 1007.9 |
| 20260510022933 | 62 | 97 | 16.0 | 21.0 | 0.00 | 0.00 | 0.00 | 44 | 1007.9 |
| 20260510022003 | 62 | 95 | 16.0 | 24.0 | 0.00 | 0.00 | 0.00 | 43 | 1007.9 |
| 20260510021933 | 62 | 95 | 16.0 | 24.0 | 0.00 | 0.00 | 0.00 | 43 | 1007.9 |
| 20260510021003 | 63 | 94 | 16.0 | 23.0 | 0.00 | 0.00 | 0.00 | 42 | 1007.8 |
| 20260510020717 | 63 | 95 | 17.0 | 23.0 | 0.00 | 0.00 | 0.00 | 42 | 1007.7 |
| 20260510020216 | 64 | 95 | 18.0 | 26.0 | 0.00 | 0.00 | 0.00 | 41 | 1007.3 |
| 20260510015503 | 64 | 96 | 18.0 | 26.0 | 0.00 | 0.00 | 0.00 | 41 | 1007.2 |
| 20260510015431 | 64 | 96 | 18.0 | 26.0 | 0.00 | 0.00 | 0.00 | 41 | 1007.1 |
| 20260510014717 | 65 | 97 | 21.0 | 29.0 | 0.00 | 0.00 | 0.00 | 41 | 1006.6 |
| 20260510014218 | 65 | 99 | 23.0 | 33.0 | 0.00 | 0.00 | 0.00 | 40 | 1006.4 |
| 20260510013503 | 66 | 100 | 25.0 | 34.0 | 0.00 | 0.00 | 0.00 | 40 | 1005.9 |
| 20260510013003 | 66 | 96 | 26.0 | 34.0 | 0.00 | 0.00 | 0.00 | 39 | 1005.4 |
| 20260510012717 | 66 | 95 | 25.0 | 34.0 | 0.00 | 0.00 | 0.00 | 39 | 1005.5 |
| 20260510012003 | 67 | 95 | 25.0 | 33.0 | 0.00 | 0.00 | 0.00 | 39 | 1005.6 |
| 20260510011503 | 68 | 95 | 26.0 | 35.0 | 0.00 | 0.00 | 0.00 | 38 | 1005.6 |
| 20260510011003 | 68 | 95 | 27.0 | 35.0 | 0.00 | 0.00 | 0.00 | 38 | 1005.6 |
| 20260510010503 | 69 | 91 | 26.0 | 35.0 | 0.00 | 0.00 | 0.00 | 37 | 1005.6 |
| 20260510010003 | 70 | 87 | 24.0 | 35.0 | 0.00 | 0.00 | 0.00 | 37 | 1005.9 |
| 20260510005503 | 70 | 90 | 22.0 | 30.0 | 0.00 | 0.00 | 0.00 | 37 | 1005.5 |
| 20260510005003 | 71 | 95 | 23.0 | 33.0 | 0.00 | 0.00 | 0.00 | 37 | 1005.4 |
| 20260510004503 | 70 | 98 | 27.0 | 37.0 | 0.00 | 0.00 | 0.00 | 37 | 1005.3 |
| 20260510004003 | 70 | 94 | 26.0 | 37.0 | 0.00 | 0.00 | 0.00 | 37 | 1004.8 |
| 20260510003717 | 70 | 90 | 23.0 | 33.0 | 0.00 | 0.00 | 0.00 | 38 | 1004.8 |
| 20260510003218 | 70 | 86 | 20.0 | 27.0 | 0.00 | 0.00 | 0.00 | 39 | 1005.3 |
| 20260510002503 | 70 | 82 | 21.0 | 30.0 | 0.00 | 0.00 | 0.00 | 39 | 1005.1 |
| 20260510002003 | 70 | 81 | 22.0 | 31.0 | 0.00 | 0.00 | 0.00 | 39 | 1004.9 |
| 20260510001503 | 71 | 86 | 23.0 | 31.0 | 0.00 | 0.00 | 0.00 | 38 | 1004.8 |
| 20260510001003 | 72 | 89 | 24.0 | 31.0 | 0.00 | 0.00 | 0.00 | 36 | 1004.6 |
| 20260510000503 | 72 | 89 | 22.0 | 31.0 | 0.00 | 0.00 | 0.00 | 36 | 1004.4 |
| 20260510000003 | 73 | 83 | 21.0 | 29.0 | 0.00 | 0.00 | 0.00 | 35 | 1004.4 |
| 20260509235716 | 74 | 83 | 22.0 | 29.0 | 0.00 | 0.00 | 0.00 | 34 | 1004.3 |
| 20260509235433 | 75 | 84 | 22.0 | 29.0 | 0.00 | 0.00 | 0.00 | 33 | 1004.3 |
| 20260509234503 | 75 | 85 | 21.0 | 29.0 | 0.00 | 0.00 | 0.00 | 33 | 1004.3 |
| 20260509234433 | 75 | 84 | 21.0 | 29.0 | 0.00 | 0.00 | 0.00 | 33 | 1004.3 |
| 20260509233716 | 75 | 82 | 23.0 | 31.0 | 0.00 | 0.00 | 0.00 | 34 | 1004.6 |
| 20260509233433 | 75 | 84 | 24.0 | 34.0 | 0.00 | 0.00 | 0.00 | 34 | 1004.6 |
| 20260509232931 | 75 | 85 | 25.0 | 34.0 | 0.00 | 0.00 | 0.00 | 33 | 1004.4 |
| 20260509232003 | 76 | 89 | 23.0 | 32.0 | 0.00 | 0.00 | 0.00 | 33 | 1004.4 |